Time;durP1;ratioP1;P1;durP2;ratioP2;P2;SDS_P1;SDS_P2;PMS_P1;PMS_P2;Temp;Humidity;BMP_temperature;BMP_pressure;BME280_temperature;BME280_humidity;BME280_pressure;Samples;Min_cycle;Max_cycle;Signal;HPM_P1;HPM_P2
2023/06/27 00:00:13;;;;;;;4.85;1.10;;;29.60;99.90;;;;;;5078184;28;20051;-60
2023/06/27 00:02:40;;;;;;;2.70;1.00;;;29.60;99.90;;;;;;5063710;28;20041;-60
2023/06/27 00:05:07;;;;;;;6.10;4.88;;;29.60;99.90;;;;;;5070885;28;20029;-60
2023/06/27 00:07:34;;;;;;;5.75;3.70;;;29.60;99.90;;;;;;5080885;28;20091;-60
2023/06/27 00:10:01;;;;;;;4.68;2.70;;;29.70;99.90;;;;;;5078282;28;20828;-59
2023/06/27 00:12:30;;;;;;;2.75;1.80;;;29.80;99.90;;;;;;5086692;28;20036;-61
2023/06/27 00:14:57;;;;;;;3.30;1.38;;;29.70;99.90;;;;;;5083106;28;20232;-60
2023/06/27 00:17:24;;;;;;;2.38;1.20;;;29.60;99.90;;;;;;5067091;28;20029;-61
2023/06/27 00:19:57;;;;;;;2.47;0.80;;;29.40;99.90;;;;;;5068750;28;20028;-60
2023/06/27 00:22:26;;;;;;;4.25;0.93;;;29.20;99.90;;;;;;5067957;28;20305;-60
2023/06/27 00:24:53;;;;;;;7.85;2.33;;;29.00;99.90;;;;;;5077926;28;20227;-63
2023/06/27 00:27:20;;;;;;;9.95;3.50;;;28.90;99.90;;;;;;5067707;28;20047;-59
2023/06/27 00:29:47;;;;;;;12.88;4.10;;;29.00;99.90;;;;;;5089032;28;20016;-61
2023/06/27 00:32:13;;;;;;;8.77;2.83;;;28.90;99.90;;;;;;5098008;28;20215;-60
2023/06/27 00:34:40;;;;;;;11.70;3.30;;;28.90;99.90;;;;;;5101043;28;20024;-60
2023/06/27 00:37:06;;;;;;;7.03;2.20;;;28.90;99.90;;;;;;5066667;28;20104;-60
2023/06/27 00:39:33;;;;;;;6.00;3.10;;;28.90;99.90;;;;;;5067687;28;20056;-60
2023/06/27 00:42:01;;;;;;;9.10;2.50;;;29.00;99.90;;;;;;5086105;28;20051;-59
2023/06/27 00:44:27;;;;;;;4.75;2.10;;;29.00;99.90;;;;;;5090230;28;20324;-59
2023/06/27 00:46:54;;;;;;;7.43;2.25;;;29.00;99.90;;;;;;5086187;28;20036;-60
2023/06/27 00:49:20;;;;;;;9.25;2.30;;;29.00;99.90;;;;;;5086280;28;20023;-60
2023/06/27 00:51:49;;;;;;;8.40;2.05;;;29.00;99.90;;;;;;5067568;28;20217;-61
2023/06/27 00:54:17;;;;;;;4.57;1.65;;;29.00;99.90;;;;;;5065728;28;20252;-60
2023/06/27 00:56:45;;;;;;;5.55;1.95;;;28.90;99.90;;;;;;5083713;28;20141;-57
2023/06/27 00:59:12;;;;;;;5.00;1.90;;;29.00;99.90;;;;;;5097158;28;20020;-59
2023/06/27 01:01:38;;;;;;;9.90;2.35;;;29.00;99.90;;;;;;5085190;28;20040;-57
2023/06/27 01:04:05;;;;;;;6.35;2.40;;;29.00;99.90;;;;;;5098554;28;20032;-59
2023/06/27 01:06:53;;;;;;;5.10;2.17;;;29.10;99.90;;;;;;5081981;28;20028;-59
2023/06/27 01:09:34;;;;;;;7.22;2.50;;;29.10;99.90;;;;;;5066011;28;20029;-59
2023/06/27 01:12:39;;;;;;;3.95;1.80;;;29.10;99.90;;;;;;5065728;28;20036;-59
2023/06/27 01:15:07;;;;;;;5.18;1.90;;;29.10;99.90;;;;;;5069841;28;20036;-58
2023/06/27 01:17:37;;;;;;;4.15;1.80;;;29.10;99.90;;;;;;5094773;28;20192;-58
2023/06/27 01:20:05;;;;;;;4.90;2.10;;;29.40;99.90;;;;;;5096814;28;20252;-57
2023/06/27 01:22:39;;;;;;;5.25;1.63;;;29.50;99.90;;;;;;5097497;28;20047;-57
2023/06/27 01:25:07;;;;;;;6.32;1.60;;;29.60;99.90;;;;;;5082901;28;20040;-56
2023/06/27 01:27:34;;;;;;;6.22;1.60;;;29.60;99.90;;;;;;5085028;28;20273;-56
2023/06/27 01:30:01;;;;;;;3.80;1.95;;;29.60;99.90;;;;;;5084390;28;20323;-57
2023/06/27 01:32:32;;;;;;;4.75;1.77;;;29.60;99.90;;;;;;5085038;28;20189;-56
2023/06/27 01:35:25;;;;;;;8.03;1.67;;;29.50;99.90;;;;;;5084684;28;20016;-55
2023/06/27 01:37:57;;;;;;;1.58;1.25;;;29.50;99.90;;;;;;5083758;28;20082;-58
2023/06/27 01:40:28;;;;;;;3.88;1.52;;;29.50;99.90;;;;;;5083783;28;20036;-57
2023/06/27 01:42:59;;;;;;;2.88;1.50;;;29.50;99.90;;;;;;5083888;28;20092;-57
2023/06/27 01:45:26;;;;;;;3.28;1.50;;;29.50;99.90;;;;;;5084112;28;20273;-56
2023/06/27 01:47:54;;;;;;;5.45;1.50;;;29.50;99.90;;;;;;5083896;28;20036;-57
2023/06/27 01:50:21;;;;;;;6.07;1.20;;;29.50;99.90;;;;;;5084544;28;20088;-59
2023/06/27 01:52:48;;;;;;;3.13;1.42;;;29.40;99.90;;;;;;5084873;28;20074;-59
2023/06/27 01:55:14;;;;;;;4.55;1.33;;;29.20;99.90;;;;;;5084632;28;20044;-60
2023/06/27 01:57:42;;;;;;;2.80;1.30;;;29.10;99.90;;;;;;5093152;28;20067;-60
2023/06/27 02:00:10;;;;;;;4.53;1.00;;;29.00;99.90;;;;;;5104963;28;20028;-57
2023/06/27 02:02:37;;;;;;;2.58;1.00;;;29.00;99.90;;;;;;5105410;28;20307;-59
2023/06/27 02:05:04;;;;;;;4.35;0.90;;;28.90;99.90;;;;;;5101626;28;20058;-58
2023/06/27 02:07:30;;;;;;;3.78;1.10;;;29.00;99.90;;;;;;5084856;28;20029;-57
2023/06/27 02:09:57;;;;;;;5.32;1.00;;;29.10;99.90;;;;;;5084508;28;20037;-61
2023/06/27 02:12:24;;;;;;;6.68;1.17;;;29.10;99.90;;;;;;5083951;28;20026;-59
2023/06/27 02:14:50;;;;;;;5.25;1.00;;;29.10;99.90;;;;;;5084379;28;20040;-59
2023/06/27 02:17:17;;;;;;;3.05;1.42;;;29.10;99.90;;;;;;5084729;28;20068;-59
2023/06/27 02:19:43;;;;;;;5.40;0.95;;;29.20;99.90;;;;;;5084370;28;20034;-59
2023/06/27 02:22:10;;;;;;;3.92;1.00;;;29.30;99.90;;;;;;5084091;28;20028;-60
2023/06/27 02:24:36;;;;;;;2.05;1.00;;;29.20;99.90;;;;;;5084220;28;20315;-57
2023/06/27 02:27:03;;;;;;;3.33;1.13;;;29.10;99.90;;;;;;5084329;28;20027;-55
2023/06/27 02:29:30;;;;;;;3.47;1.30;;;29.10;99.90;;;;;;5084250;28;20216;-60
2023/06/27 02:31:57;;;;;;;6.53;1.45;;;29.10;99.90;;;;;;5085561;28;20099;-59
2023/06/27 02:34:23;;;;;;;3.65;1.33;;;29.10;99.90;;;;;;5092628;28;20017;-58
2023/06/27 02:36:50;;;;;;;5.53;1.20;;;29.00;99.90;;;;;;5084645;28;20029;-59
2023/06/27 02:39:16;;;;;;;3.30;1.20;;;29.00;99.90;;;;;;5084165;28;20044;-59
2023/06/27 02:41:43;;;;;;;4.22;1.30;;;29.00;99.90;;;;;;5084068;28;20020;-60
2023/06/27 02:44:09;;;;;;;3.05;0.98;;;28.90;99.90;;;;;;5083804;28;20070;-60
2023/06/27 02:46:36;;;;;;;3.45;1.17;;;28.80;99.90;;;;;;5084106;28;20047;-59
2023/06/27 02:49:03;;;;;;;2.33;0.68;;;28.70;99.90;;;;;;5083927;28;20058;-58
2023/06/27 02:51:29;;;;;;;3.83;0.82;;;28.70;99.90;;;;;;5083586;28;20192;-59
2023/06/27 02:53:56;;;;;;;4.15;0.85;;;28.60;99.90;;;;;;5083858;28;20029;-59
2023/06/27 02:56:23;;;;;;;6.22;1.42;;;28.70;99.90;;;;;;5083908;28;20052;-57
2023/06/27 02:58:51;;;;;;;1.80;0.70;;;28.70;99.90;;;;;;5084152;28;20366;-60
2023/06/27 03:01:17;;;;;;;5.10;1.05;;;28.60;99.90;;;;;;5084120;28;20028;-60
2023/06/27 03:03:45;;;;;;;6.47;0.63;;;28.60;99.90;;;;;;5083825;28;20243;-58
2023/06/27 03:06:12;;;;;;;3.13;0.65;;;28.60;99.90;;;;;;5083990;28;20028;-60
2023/06/27 03:08:39;;;;;;;3.33;0.95;;;28.60;99.90;;;;;;5083649;28;20036;-59
2023/06/27 03:11:05;;;;;;;3.67;0.98;;;28.60;99.90;;;;;;5086765;28;20036;-59
2023/06/27 03:13:32;;;;;;;4.32;0.63;;;28.60;99.90;;;;;;5091403;28;20020;-59
2023/06/27 03:16:00;;;;;;;5.10;0.75;;;28.50;99.90;;;;;;5083695;28;20200;-59
2023/06/27 03:18:27;;;;;;;4.97;0.88;;;28.50;99.90;;;;;;5083668;28;20020;-60
2023/06/27 03:20:53;;;;;;;5.30;0.93;;;28.50;99.90;;;;;;5083521;28;20039;-59
2023/06/27 03:23:20;;;;;;;4.97;1.30;;;28.60;99.90;;;;;;5083530;28;20318;-58
2023/06/27 03:25:46;;;;;;;4.00;0.90;;;28.60;99.90;;;;;;5083706;28;20047;-61
2023/06/27 03:28:13;;;;;;;6.60;1.20;;;28.60;99.90;;;;;;5083517;28;20024;-61
2023/06/27 03:30:43;;;;;;;5.38;1.48;;;28.60;99.90;;;;;;5083696;28;20048;-60
2023/06/27 03:33:10;;;;;;;6.38;1.40;;;28.50;99.90;;;;;;5083701;28;20019;-60
2023/06/27 03:35:37;;;;;;;3.08;1.17;;;28.50;99.90;;;;;;5083580;28;20035;-60
2023/06/27 03:38:03;;;;;;;4.05;1.08;;;28.50;99.90;;;;;;5083475;28;20028;-60
2023/06/27 03:40:30;;;;;;;4.60;1.00;;;28.50;99.90;;;;;;5083514;28;20210;-61
2023/06/27 03:42:57;;;;;;;6.65;0.95;;;28.50;99.90;;;;;;5083667;28;20028;-61
2023/06/27 03:45:23;;;;;;;5.00;1.10;;;28.50;99.90;;;;;;5083513;28;20056;-60
2023/06/27 03:47:50;;;;;;;4.25;0.88;;;28.50;99.90;;;;;;5087005;28;20025;-60
2023/06/27 03:50:16;;;;;;;4.60;1.00;;;28.50;99.90;;;;;;5087180;28;20091;-61
2023/06/27 03:52:43;;;;;;;5.68;1.15;;;28.40;99.90;;;;;;5087355;28;20032;-60
2023/06/27 03:55:09;;;;;;;3.38;1.08;;;28.50;99.90;;;;;;5097605;28;20066;-60
2023/06/27 03:57:36;;;;;;;4.85;1.05;;;28.50;99.90;;;;;;5087406;28;20059;-60
2023/06/27 04:00:07;;;;;;;8.80;1.30;;;28.50;99.90;;;;;;5107426;28;20220;-61
2023/06/27 04:02:33;;;;;;;6.05;1.55;;;28.40;99.90;;;;;;5107743;28;20087;-61
2023/06/27 04:05:00;;;;;;;3.30;1.55;;;28.40;99.90;;;;;;5107544;28;20149;-60
2023/06/27 04:07:27;;;;;;;5.00;1.23;;;28.40;99.90;;;;;;5107643;28;20099;-59
2023/06/27 04:09:54;;;;;;;3.17;1.20;;;28.40;99.90;;;;;;5107163;28;20368;-61
2023/06/27 04:12:20;;;;;;;8.13;1.40;;;28.40;99.90;;;;;;5107643;28;20024;-59
2023/06/27 04:14:47;;;;;;;4.45;1.02;;;28.40;99.90;;;;;;5106963;28;20192;-59
2023/06/27 04:17:15;;;;;;;6.88;1.10;;;28.40;99.90;;;;;;5107312;28;20020;-59
2023/06/27 04:19:41;;;;;;;7.22;1.20;;;28.40;99.90;;;;;;5107116;28;20024;-60
2023/06/27 04:22:08;;;;;;;5.47;1.10;;;28.40;99.90;;;;;;5107465;28;20062;-58
2023/06/27 04:24:34;;;;;;;6.15;1.13;;;28.40;99.90;;;;;;5106879;28;20351;-61
2023/06/27 04:27:01;;;;;;;9.80;1.17;;;28.40;99.90;;;;;;5107212;28;20077;-60
2023/06/27 04:29:27;;;;;;;5.93;0.80;;;28.30;99.90;;;;;;5106906;28;20027;-60
2023/06/27 04:31:54;;;;;;;4.70;1.00;;;28.30;99.90;;;;;;5106990;28;20308;-60
2023/06/27 04:34:21;;;;;;;11.55;1.20;;;28.30;99.90;;;;;;5107119;28;20031;-59
2023/06/27 04:36:47;;;;;;;2.95;0.60;;;28.30;99.90;;;;;;5106922;28;20032;-61
2023/06/27 04:39:15;;;;;;;4.85;0.88;;;28.30;99.90;;;;;;5106462;28;20087;-61
2023/06/27 04:41:41;;;;;;;7.32;1.10;;;28.30;99.90;;;;;;5106665;28;20059;-61
2023/06/27 04:44:08;;;;;;;5.20;1.13;;;28.30;99.90;;;;;;5106467;28;20059;-60
2023/06/27 04:46:34;;;;;;;3.78;0.90;;;28.30;99.90;;;;;;5106313;28;20027;-60
2023/06/27 04:49:02;;;;;;;5.80;1.13;;;28.30;99.90;;;;;;5106651;28;20027;-61
2023/06/27 04:51:29;;;;;;;5.82;1.15;;;28.20;99.90;;;;;;5106571;28;20054;-60
2023/06/27 04:53:56;;;;;;;5.25;1.30;;;28.20;99.90;;;;;;5106157;28;20018;-59
2023/06/27 04:56:27;;;;;;;5.20;1.00;;;28.20;99.90;;;;;;5105911;28;20249;-61
2023/06/27 04:58:54;;;;;;;6.30;1.27;;;28.20;99.90;;;;;;5106372;28;20039;-61
2023/06/27 05:01:20;;;;;;;5.25;1.10;;;28.20;99.90;;;;;;5106448;28;20028;-60
2023/06/27 05:03:47;;;;;;;5.05;0.93;;;28.20;99.90;;;;;;5106328;28;20023;-58
2023/06/27 05:06:13;;;;;;;7.50;1.10;;;28.20;99.90;;;;;;5106174;28;20032;-60
2023/06/27 05:08:40;;;;;;;5.93;0.88;;;28.20;99.90;;;;;;5106131;28;20019;-61
2023/06/27 05:11:06;;;;;;;7.00;1.08;;;28.20;99.90;;;;;;5106013;28;20027;-58
2023/06/27 05:13:33;;;;;;;4.03;0.80;;;28.20;99.90;;;;;;5105839;28;20028;-58
2023/06/27 05:15:59;;;;;;;5.40;0.90;;;28.20;99.90;;;;;;5105881;28;20048;-60
2023/06/27 05:18:26;;;;;;;6.38;0.98;;;28.20;99.90;;;;;;5105976;28;20015;-60
2023/06/27 05:20:53;;;;;;;4.55;1.02;;;28.20;99.90;;;;;;5105738;28;20036;-60
2023/06/27 05:23:21;;;;;;;9.95;1.02;;;28.20;99.90;;;;;;5105571;28;20016;-60
2023/06/27 05:25:48;;;;;;;3.42;0.90;;;28.20;99.90;;;;;;5105851;28;20039;-61
2023/06/27 05:28:15;;;;;;;9.45;1.08;;;28.20;99.90;;;;;;5105825;28;20042;-60
2023/06/27 05:30:42;;;;;;;5.45;0.80;;;28.20;99.90;;;;;;5105486;28;20246;-59
2023/06/27 05:33:08;;;;;;;4.65;1.10;;;28.20;99.90;;;;;;5105598;28;20043;-60
2023/06/27 05:35:35;;;;;;;6.10;0.90;;;28.30;99.90;;;;;;5105436;28;20243;-59
2023/06/27 05:38:01;;;;;;;5.53;1.13;;;28.20;99.90;;;;;;5105484;28;20046;-60
2023/06/27 05:40:29;;;;;;;6.97;1.70;;;28.20;99.90;;;;;;5105344;28;20099;-60
2023/06/27 05:42:55;;;;;;;3.33;1.42;;;28.20;99.90;;;;;;5105416;28;20036;-60
2023/06/27 05:45:22;;;;;;;3.83;1.45;;;28.20;99.90;;;;;;5105382;28;20354;-60
2023/06/27 05:47:48;;;;;;;7.15;1.63;;;28.20;99.90;;;;;;5105267;28;20034;-61
2023/06/27 05:50:15;;;;;;;7.15;1.58;;;28.20;99.90;;;;;;5105597;28;20069;-61
2023/06/27 05:52:41;;;;;;;5.15;1.60;;;28.20;99.90;;;;;;5105642;28;20020;-61
2023/06/27 05:55:08;;;;;;;5.57;1.30;;;28.20;99.90;;;;;;5105098;28;20055;-60
2023/06/27 05:57:34;;;;;;;5.55;1.23;;;28.20;99.90;;;;;;5105114;28;20051;-61
2023/06/27 06:00:01;;;;;;;4.10;0.82;;;28.20;99.90;;;;;;5105210;28;20365;-61
2023/06/27 06:02:27;;;;;;;2.97;0.90;;;28.20;99.90;;;;;;5105307;28;20031;-60
2023/06/27 06:04:54;;;;;;;6.28;1.40;;;28.20;99.90;;;;;;5105073;28;20043;-57
2023/06/27 06:07:21;;;;;;;4.63;0.80;;;28.20;99.90;;;;;;5105253;28;20028;-59
2023/06/27 06:09:47;;;;;;;6.63;0.90;;;28.20;99.90;;;;;;5103995;28;20051;-59
2023/06/27 06:12:14;;;;;;;6.30;0.90;;;28.10;99.90;;;;;;5104847;28;20236;-57
2023/06/27 06:14:40;;;;;;;6.60;1.17;;;28.10;99.90;;;;;;5104761;28;20026;-59
2023/06/27 06:17:07;;;;;;;7.65;1.17;;;28.00;99.90;;;;;;5101726;28;20041;-59
2023/06/27 06:19:33;;;;;;;7.38;1.00;;;28.00;99.90;;;;;;5084633;28;20097;-59
2023/06/27 06:22:00;;;;;;;7.18;1.08;;;28.00;99.90;;;;;;5084709;28;20035;-59
2023/06/27 06:24:27;;;;;;;9.40;0.90;;;28.00;99.90;;;;;;5084232;28;20028;-58
2023/06/27 06:26:53;;;;;;;5.25;0.90;;;28.00;99.90;;;;;;5084457;28;20047;-61
2023/06/27 06:29:20;;;;;;;9.00;0.82;;;28.00;99.90;;;;;;5084252;28;20048;-60
2023/06/27 06:31:46;;;;;;;6.18;1.27;;;28.00;99.90;;;;;;5084468;28;20264;-61
2023/06/27 06:34:13;;;;;;;7.60;0.90;;;28.00;99.90;;;;;;5084335;28;20088;-58
2023/06/27 06:36:39;;;;;;;6.50;0.93;;;27.90;99.90;;;;;;5084408;28;20051;-59
2023/06/27 06:39:06;;;;;;;5.72;1.02;;;27.90;99.90;;;;;;5083913;28;20110;-58
2023/06/27 06:41:32;;;;;;;7.60;1.10;;;28.00;99.90;;;;;;5084446;28;20040;-61
2023/06/27 06:43:59;;;;;;;4.85;0.93;;;28.00;99.90;;;;;;5084167;28;20013;-60
2023/06/27 06:46:25;;;;;;;9.73;1.30;;;28.00;99.90;;;;;;5084243;28;20036;-60
2023/06/27 06:48:52;;;;;;;9.30;1.38;;;28.00;99.90;;;;;;5083866;28;20036;-60
2023/06/27 06:51:19;;;;;;;7.15;0.80;;;28.00;99.90;;;;;;5084269;28;20044;-61
2023/06/27 06:53:46;;;;;;;4.63;0.70;;;27.90;99.90;;;;;;5083879;28;20074;-60
2023/06/27 06:56:12;;;;;;;4.78;0.95;;;27.90;99.90;;;;;;5083961;28;20052;-61
2023/06/27 06:58:39;;;;;;;5.10;1.05;;;27.90;99.90;;;;;;5083937;28;20264;-61
2023/06/27 07:01:05;;;;;;;5.13;1.00;;;27.90;99.90;;;;;;5083984;28;20032;-60
2023/06/27 07:03:36;;;;;;;7.03;1.00;;;27.90;99.90;;;;;;5083735;28;20055;-61
2023/06/27 07:06:03;;;;;;;8.35;1.45;;;27.80;99.90;;;;;;5083995;28;20050;-58
2023/06/27 07:08:29;;;;;;;6.43;1.10;;;27.80;99.90;;;;;;5083744;28;20321;-59
2023/06/27 07:10:56;;;;;;;8.43;1.25;;;27.90;99.90;;;;;;5083229;28;20085;-59
2023/06/27 07:13:23;;;;;;;9.90;1.20;;;27.90;99.90;;;;;;5096260;28;20056;-57
2023/06/27 07:15:49;;;;;;;5.22;1.17;;;27.90;99.90;;;;;;5089669;28;20320;-60
2023/06/27 07:18:16;;;;;;;4.13;0.95;;;27.80;99.90;;;;;;5103766;28;20103;-62
2023/06/27 07:20:42;;;;;;;11.45;1.10;;;27.80;99.90;;;;;;5106374;28;20087;-62
2023/06/27 07:23:09;;;;;;;8.77;0.93;;;27.80;99.90;;;;;;5108199;28;20032;-60
2023/06/27 07:25:38;;;;;;;5.30;0.90;;;27.80;99.90;;;;;;5107877;28;20032;-59
2023/06/27 07:28:05;;;;;;;8.40;1.20;;;27.70;99.90;;;;;;5107851;28;20331;-58
2023/06/27 07:30:31;;;;;;;7.60;1.10;;;27.80;99.90;;;;;;5108103;28;20027;-61
2023/06/27 07:32:58;;;;;;;5.80;1.08;;;27.70;99.90;;;;;;5107782;28;20073;-60
2023/06/27 07:35:24;;;;;;;12.25;1.05;;;27.70;99.90;;;;;;5107958;28;20020;-59
2023/06/27 07:37:51;;;;;;;4.22;1.00;;;27.70;99.90;;;;;;5108079;28;20047;-60
2023/06/27 07:40:17;;;;;;;3.72;0.82;;;27.70;99.90;;;;;;5107646;28;20093;-61
2023/06/27 07:42:44;;;;;;;7.65;1.00;;;27.70;99.90;;;;;;5107781;28;20094;-60
2023/06/27 07:45:12;;;;;;;5.97;0.90;;;27.60;99.90;;;;;;5107770;28;20027;-58
2023/06/27 07:47:38;;;;;;;4.85;1.00;;;27.60;99.90;;;;;;5108148;28;20085;-61
2023/06/27 07:50:05;;;;;;;6.28;0.80;;;27.60;99.90;;;;;;5107537;28;20030;-60
2023/06/27 07:52:32;;;;;;;4.55;0.80;;;27.60;99.90;;;;;;5108025;28;20020;-61
2023/06/27 07:54:58;;;;;;;6.47;1.00;;;27.60;99.90;;;;;;5107577;28;20249;-61
2023/06/27 07:57:25;;;;;;;6.75;1.00;;;27.60;99.90;;;;;;5107373;28;20344;-59
2023/06/27 07:59:51;;;;;;;5.45;0.70;;;27.60;99.90;;;;;;5107559;28;20036;-60
2023/06/27 08:02:18;;;;;;;5.95;0.90;;;27.60;99.90;;;;;;5107865;28;20040;-59
2023/06/27 08:04:44;;;;;;;8.70;1.05;;;27.60;99.90;;;;;;5107251;28;20019;-59
2023/06/27 08:07:11;;;;;;;7.53;1.00;;;27.60;99.90;;;;;;5107892;28;20051;-60
2023/06/27 08:09:37;;;;;;;6.70;1.05;;;27.60;99.90;;;;;;5106990;28;20264;-57
2023/06/27 08:12:06;;;;;;;5.80;0.80;;;27.60;99.90;;;;;;5107615;28;20087;-60
2023/06/27 08:14:32;;;;;;;4.38;0.73;;;27.60;99.90;;;;;;5107047;28;20019;-59
2023/06/27 08:16:59;;;;;;;9.98;1.08;;;27.60;99.90;;;;;;5107431;28;20040;-59
2023/06/27 08:19:27;;;;;;;7.53;0.90;;;27.60;99.90;;;;;;5107316;28;20385;-60
2023/06/27 08:21:53;;;;;;;9.27;1.00;;;27.60;99.90;;;;;;5107229;28;20076;-60
2023/06/27 08:24:20;;;;;;;5.97;0.85;;;27.60;99.90;;;;;;5106849;28;20035;-59
2023/06/27 08:26:49;;;;;;;9.48;0.80;;;27.60;99.90;;;;;;5106970;28;20074;-60
2023/06/27 08:29:17;;;;;;;12.50;1.30;;;27.60;99.90;;;;;;5106748;28;20023;-60
2023/06/27 08:31:43;;;;;;;5.47;1.00;;;27.60;99.90;;;;;;5105980;28;20150;-60
2023/06/27 08:34:10;;;;;;;4.93;0.90;;;27.70;99.90;;;;;;5106762;28;20054;-58
2023/06/27 08:36:36;;;;;;;6.63;0.88;;;27.70;99.90;;;;;;5107085;28;20042;-61
2023/06/27 08:39:03;;;;;;;4.25;0.70;;;27.60;99.90;;;;;;5106547;28;20032;-59
2023/06/27 08:41:30;;;;;;;6.60;0.98;;;27.70;99.90;;;;;;5106534;28;20031;-60
2023/06/27 08:43:57;;;;;;;4.68;0.80;;;27.70;99.90;;;;;;5106702;28;20212;-61
2023/06/27 08:46:26;;;;;;;6.30;0.80;;;27.70;99.90;;;;;;5106529;28;20079;-59
2023/06/27 08:48:55;;;;;;;6.30;1.00;;;27.70;99.90;;;;;;5106589;28;20034;-59
2023/06/27 08:51:23;;;;;;;3.03;0.90;;;27.70;99.90;;;;;;5102234;28;20020;-59
2023/06/27 08:53:55;;;;;;;6.63;1.15;;;27.70;99.90;;;;;;5085947;28;20032;-56
2023/06/27 08:56:24;;;;;;;6.03;0.88;;;27.70;99.90;;;;;;5085982;28;20367;-59
2023/06/27 08:59:01;;;;;;;6.22;0.70;;;27.70;99.90;;;;;;5086051;28;20328;-59
2023/06/27 09:01:31;;;;;;;7.95;1.33;;;27.70;99.90;;;;;;5086253;28;20040;-59
2023/06/27 09:03:59;;;;;;;5.38;0.95;;;27.70;99.90;;;;;;5085800;28;20059;-59
2023/06/27 09:06:26;;;;;;;6.20;1.00;;;27.70;99.90;;;;;;5086060;28;20074;-56
2023/06/27 09:08:53;;;;;;;8.18;1.23;;;27.70;99.90;;;;;;5086259;28;20100;-61
2023/06/27 09:11:21;;;;;;;7.65;1.30;;;27.70;99.90;;;;;;5086017;28;20308;-61
2023/06/27 09:13:47;;;;;;;10.82;1.10;;;27.70;99.90;;;;;;5085525;28;20235;-57
2023/06/27 09:16:15;;;;;;;7.18;1.10;;;27.70;99.90;;;;;;5085851;28;20024;-57
2023/06/27 09:18:43;;;;;;;11.38;1.10;;;27.60;99.90;;;;;;5085616;28;20032;-57
2023/06/27 09:21:10;;;;;;;9.98;1.17;;;27.70;99.90;;;;;;5085585;28;20036;-58
2023/06/27 09:23:37;;;;;;;10.93;1.17;;;27.70;99.90;;;;;;5085663;28;20039;-59
2023/06/27 09:26:12;;;;;;;8.38;1.02;;;27.70;99.90;;;;;;5085339;28;20240;-58
2023/06/27 09:28:50;;;;;;;9.05;1.00;;;27.70;99.90;;;;;;5085367;28;20327;-57
2023/06/27 09:31:20;;;;;;;10.68;1.20;;;27.80;99.90;;;;;;5085487;28;20033;-60
2023/06/27 09:33:48;;;;;;;7.32;1.23;;;27.70;99.90;;;;;;5085146;28;20020;-57
2023/06/27 09:36:34;;;;;;;8.68;1.13;;;27.80;99.90;;;;;;5085311;28;20166;-59
2023/06/27 09:39:12;;;;;;;7.20;1.10;;;27.70;99.90;;;;;;5085121;28;20094;-60
2023/06/27 09:41:44;;;;;;;6.55;1.42;;;27.70;99.90;;;;;;5085444;28;20055;-57
2023/06/27 09:44:25;;;;;;;7.28;1.20;;;27.80;99.90;;;;;;5085287;28;20024;-58
2023/06/27 09:46:52;;;;;;;8.00;1.20;;;27.70;99.90;;;;;;5085048;28;20040;-58
2023/06/27 09:49:21;;;;;;;15.40;1.60;;;27.70;99.90;;;;;;5084920;28;20024;-57
2023/06/27 09:51:52;;;;;;;7.50;1.58;;;27.60;99.90;;;;;;5085122;28;20025;-57
2023/06/27 09:54:23;;;;;;;7.40;1.42;;;27.70;99.90;;;;;;5085004;28;20030;-59
2023/06/27 09:56:51;;;;;;;12.15;1.67;;;27.70;99.90;;;;;;5090215;28;20055;-59
2023/06/27 09:59:21;;;;;;;11.13;1.23;;;27.60;99.90;;;;;;5099021;28;20016;-57
2023/06/27 10:01:49;;;;;;;5.05;1.38;;;27.70;99.90;;;;;;5104093;28;20031;-60
2023/06/27 10:04:16;;;;;;;12.82;1.60;;;27.70;99.90;;;;;;5103938;28;20031;-58
2023/06/27 10:06:43;;;;;;;7.10;1.20;;;27.70;99.90;;;;;;5091323;28;20032;-59
2023/06/27 10:09:10;;;;;;;9.77;1.63;;;27.70;99.90;;;;;;5105182;28;20020;-60
2023/06/27 10:11:37;;;;;;;7.35;1.15;;;27.60;99.90;;;;;;5105434;28;20023;-58
2023/06/27 10:14:04;;;;;;;10.38;1.77;;;27.70;99.90;;;;;;5104719;28;20020;-59
2023/06/27 10:16:31;;;;;;;8.27;1.45;;;27.70;99.90;;;;;;5105106;28;20036;-59
2023/06/27 10:18:58;;;;;;;11.63;1.70;;;27.60;99.90;;;;;;5103646;28;20099;-57
2023/06/27 10:21:26;;;;;;;5.55;1.42;;;27.60;99.90;;;;;;5105037;28;20020;-58
2023/06/27 10:23:56;;;;;;;9.45;1.50;;;27.70;99.90;;;;;;5105037;28;20182;-59
2023/06/27 10:26:26;;;;;;;13.70;1.90;;;27.70;99.90;;;;;;5104847;28;20200;-59
2023/06/27 10:28:53;;;;;;;9.38;1.63;;;27.70;99.90;;;;;;5104835;28;20046;-61
2023/06/27 10:31:44;;;;;;;8.98;1.52;;;27.70;99.90;;;;;;5103592;28;20032;-60
2023/06/27 10:34:38;;;;;;;8.45;1.75;;;27.70;99.90;;;;;;5104459;28;20035;-60
2023/06/27 10:37:05;;;;;;;14.27;1.98;;;27.70;99.90;;;;;;5104781;28;20324;-60
2023/06/27 10:39:34;;;;;;;12.70;1.60;;;27.70;99.90;;;;;;5104599;28;20039;-59
2023/06/27 10:42:01;;;;;;;9.50;1.80;;;27.70;99.90;;;;;;5104746;28;20024;-59
2023/06/27 10:44:28;;;;;;;9.43;1.85;;;27.70;99.90;;;;;;5104287;28;20057;-61
2023/06/27 10:47:16;;;;;;;10.80;2.17;;;27.70;99.90;;;;;;5104503;28;20040;-60
2023/06/27 10:49:52;;;;;;;8.00;1.63;;;27.70;99.90;;;;;;5104309;28;20035;-61
2023/06/27 10:52:25;;;;;;;7.75;1.65;;;27.70;99.90;;;;;;5086839;28;20142;-62
2023/06/27 10:55:27;;;;;;;8.82;1.48;;;27.70;99.90;;;;;;5083529;28;20020;-61
2023/06/27 10:58:06;;;;;;;7.95;1.50;;;27.80;99.90;;;;;;5041456;28;20047;-60
2023/06/27 11:00:34;;;;;;;8.75;1.48;;;27.80;99.90;;;;;;5082088;28;20054;-61
2023/06/27 11:03:05;;;;;;;6.43;1.58;;;27.80;99.90;;;;;;5083560;28;20048;-59
2023/06/27 11:05:53;;;;;;;10.07;1.25;;;27.80;99.90;;;;;;5083655;28;20054;-60
2023/06/27 11:08:21;;;;;;;8.18;1.45;;;27.80;99.90;;;;;;5083896;28;20025;-65
2023/06/27 11:11:00;;;;;;;6.85;1.35;;;27.70;99.90;;;;;;5083065;28;20035;-63
2023/06/27 11:13:34;;;;;;;8.80;1.67;;;27.70;99.90;;;;;;5083876;28;20024;-64
2023/06/27 11:16:02;;;;;;;9.63;1.50;;;27.70;99.90;;;;;;5083753;28;20027;-64
2023/06/27 11:18:28;;;;;;;9.32;1.50;;;27.70;99.90;;;;;;5083876;28;20092;-65
2023/06/27 11:20:56;;;;;;;10.45;1.38;;;27.70;99.90;;;;;;5083272;28;20035;-63
2023/06/27 11:23:24;;;;;;;10.18;2.00;;;27.80;99.90;;;;;;5083656;28;20028;-57
2023/06/27 11:25:52;;;;;;;14.32;3.30;;;27.80;99.90;;;;;;5083841;28;20291;-60
2023/06/27 11:28:21;;;;;;;16.00;4.35;;;28.00;99.90;;;;;;5083853;28;20023;-61
2023/06/27 11:30:48;;;;;;;11.35;3.78;;;28.00;99.90;;;;;;5084450;28;20024;-59
2023/06/27 11:33:23;;;;;;;9.00;3.25;;;28.10;99.90;;;;;;5091837;28;20043;-56
2023/06/27 11:35:50;;;;;;;11.07;2.67;;;28.10;99.90;;;;;;5076438;28;20040;-58
2023/06/27 11:38:16;;;;;;;12.55;3.15;;;28.00;99.90;;;;;;5073588;28;20095;-59
2023/06/27 11:40:50;;;;;;;12.32;3.22;;;28.10;99.90;;;;;;5070949;28;20277;-60
2023/06/27 11:43:18;;;;;;;8.25;3.30;;;28.10;99.90;;;;;;5073355;28;20305;-59
2023/06/27 11:45:46;;;;;;;12.70;4.13;;;28.10;99.90;;;;;;5070449;28;20032;-59
2023/06/27 11:48:12;;;;;;;9.70;4.43;;;28.20;99.90;;;;;;5074118;28;20020;-56
2023/06/27 11:51:13;;;;;;;10.60;3.88;;;28.10;99.90;;;;;;5073961;28;20047;-57
2023/06/27 11:53:52;;;;;;;11.07;2.92;;;28.10;99.90;;;;;;5079981;28;20037;-59
2023/06/27 11:56:21;;;;;;;13.85;2.95;;;28.10;99.90;;;;;;5073143;28;20229;-61
2023/06/27 11:58:48;;;;;;;10.13;2.97;;;28.20;99.90;;;;;;5062295;28;20228;-62
2023/06/27 12:01:18;;;;;;;9.95;2.97;;;28.20;99.90;;;;;;5063557;28;20047;-61
2023/06/27 12:03:50;;;;;;;10.32;2.78;;;28.20;99.90;;;;;;5083686;28;20028;-62
2023/06/27 12:06:27;;;;;;;9.23;2.30;;;28.20;99.90;;;;;;5084267;28;20052;-61
2023/06/27 12:08:55;;;;;;;11.60;1.85;;;28.20;99.90;;;;;;5087799;28;20036;-61
2023/06/27 12:11:34;;;;;;;8.10;2.00;;;28.30;99.90;;;;;;5087890;28;20085;-61
2023/06/27 12:14:04;;;;;;;15.38;1.92;;;28.20;99.90;;;;;;5085232;28;20305;-61
2023/06/27 12:16:35;;;;;;;10.88;1.70;;;28.20;99.90;;;;;;5085514;28;20240;-61
2023/06/27 12:19:07;;;;;;;7.70;1.95;;;28.20;99.90;;;;;;5085214;28;20040;-62
2023/06/27 12:21:34;;;;;;;9.75;1.80;;;28.20;99.90;;;;;;5086545;28;20095;-61
2023/06/27 12:24:01;;;;;;;9.88;1.88;;;28.20;99.90;;;;;;5086813;28;20287;-60
2023/06/27 12:26:27;;;;;;;9.90;2.03;;;28.20;99.90;;;;;;5086831;28;20032;-60
2023/06/27 12:28:56;;;;;;;9.70;2.22;;;28.20;99.90;;;;;;5087278;28;20102;-61
2023/06/27 12:31:22;;;;;;;9.68;1.85;;;28.30;99.90;;;;;;5087480;28;20051;-60
2023/06/27 12:33:51;;;;;;;8.75;2.80;;;28.30;99.90;;;;;;5087162;28;20028;-60
2023/06/27 12:36:24;;;;;;;9.85;2.83;;;28.30;99.90;;;;;;5087562;28;20025;-65
2023/06/27 12:38:51;;;;;;;9.93;3.30;;;28.30;99.90;;;;;;5087342;28;20028;-62
2023/06/27 12:41:18;;;;;;;7.80;3.10;;;28.30;99.90;;;;;;5087009;28;20036;-62
2023/06/27 12:43:45;;;;;;;9.55;3.45;;;28.30;99.90;;;;;;5087033;28;20012;-62
2023/06/27 12:46:15;;;;;;;4.50;2.60;;;28.30;99.90;;;;;;5087195;28;20031;-62
2023/06/27 12:48:43;;;;;;;7.47;2.55;;;28.30;99.90;;;;;;5086891;28;20036;-62
2023/06/27 12:51:11;;;;;;;8.63;2.60;;;28.30;99.90;;;;;;5087238;28;20048;-61